createdAt,value
2023-08-29T00:00:53.015Z,94647
2023-08-29T00:02:01.710Z,94649
2023-08-29T00:03:11.396Z,94654
2023-08-29T00:04:20.132Z,94659
2023-08-29T00:05:29.852Z,94662
2023-08-29T00:06:37.462Z,94672
2023-08-29T00:07:46.126Z,94672
2023-08-29T00:08:55.844Z,94675
2023-08-29T00:10:03.541Z,94678
2023-08-29T00:11:13.227Z,94675
2023-08-29T00:12:21.930Z,94678
2023-08-29T00:13:30.614Z,94673
2023-08-29T00:14:40.302Z,94673
2023-08-29T00:15:48.051Z,94678
2023-08-29T00:16:57.737Z,94679
2023-08-29T00:18:06.644Z,94679
2023-08-29T00:19:16.148Z,94676
2023-08-29T00:20:25.819Z,94675
2023-08-29T00:21:34.529Z,94677
2023-08-29T00:22:44.209Z,94673
2023-08-29T00:23:51.891Z,94667
2023-08-29T00:25:01.581Z,94665
2023-08-29T00:26:11.261Z,94659
2023-08-29T00:27:20.962Z,94656
2023-08-29T00:28:29.647Z,94656
2023-08-29T00:29:39.359Z,94651
2023-08-29T00:30:48.054Z,94655
2023-08-29T00:31:56.741Z,94659
2023-08-29T00:33:05.418Z,94656
2023-08-29T00:34:14.080Z,94659
2023-08-29T00:35:23.756Z,94658
2023-08-29T00:36:31.424Z,94655
2023-08-29T00:37:40.145Z,94659
2023-08-29T00:38:49.837Z,94657
2023-08-29T00:39:58.488Z,94654
2023-08-29T00:41:08.152Z,94657
2023-08-29T00:42:15.861Z,94651
2023-08-29T00:43:25.558Z,94651
2023-08-29T00:44:35.250Z,94651
2023-08-29T00:45:43.973Z,94650
2023-08-29T00:46:53.631Z,94654
2023-08-29T00:48:02.614Z,94650
2023-08-29T00:49:12.241Z,94656
2023-08-29T00:50:22.068Z,94652
2023-08-29T00:51:31.763Z,94652
2023-08-29T00:52:40.423Z,94653
2023-08-29T00:53:50.135Z,94654
2023-08-29T00:54:58.836Z,94654
2023-08-29T00:56:07.515Z,94654
2023-08-29T00:57:17.217Z,94653
2023-08-29T00:58:26.914Z,94654
2023-08-29T00:59:36.597Z,94650
2023-08-29T01:00:45.284Z,94649
2023-08-29T01:01:53.953Z,94647
2023-08-29T01:03:03.679Z,94653
2023-08-29T01:04:13.343Z,94650
2023-08-29T01:05:22.005Z,94645
2023-08-29T01:06:30.705Z,94647
2023-08-29T01:07:39.348Z,94650
2023-08-29T01:08:48.012Z,94642
2023-08-29T01:09:57.745Z,94639
2023-08-29T01:11:06.448Z,94643
2023-08-29T01:12:15.146Z,94635
2023-08-29T01:13:24.806Z,94640
2023-08-29T01:14:33.548Z,94647
2023-08-29T01:15:43.256Z,94637
2023-08-29T01:16:50.877Z,94642
2023-08-29T01:17:59.634Z,94639
2023-08-29T01:19:09.861Z,94641
2023-08-29T01:20:18.013Z,94640
2023-08-29T01:21:27.696Z,94629
2023-08-29T01:22:36.404Z,94638
2023-08-29T01:23:46.066Z,94635
2023-08-29T01:24:55.725Z,94632
2023-08-29T01:26:04.391Z,94631
2023-08-29T01:27:13.063Z,94638
2023-08-29T01:28:22.840Z,94634
2023-08-29T01:29:30.525Z,94635
2023-08-29T01:30:39.238Z,94631
2023-08-29T01:31:47.947Z,94640
2023-08-29T01:32:56.621Z,94633
2023-08-29T01:34:06.290Z,94631
2023-08-29T01:35:14.268Z,94640
2023-08-29T01:36:26.605Z,94637
2023-08-29T01:37:36.264Z,94647
2023-08-29T01:38:44.987Z,94645
2023-08-29T01:39:53.646Z,94646
2023-08-29T01:41:02.319Z,94644
2023-08-29T01:42:11.015Z,94648
2023-08-29T01:43:20.701Z,94649
2023-08-29T01:44:29.388Z,94645
2023-08-29T01:45:38.104Z,94650
2023-08-29T01:46:47.745Z,94649
2023-08-29T01:47:55.422Z,94650
2023-08-29T01:49:04.096Z,94649
2023-08-29T01:50:12.804Z,94647
2023-08-29T01:51:21.484Z,94646
2023-08-29T01:52:31.198Z,94649
2023-08-29T01:53:38.863Z,94649
2023-08-29T01:54:48.569Z,94645
2023-08-29T01:55:58.214Z,94651
2023-08-29T01:57:05.881Z,94648
2023-08-29T01:58:15.555Z,94647
2023-08-29T01:59:24.233Z,94655
2023-08-29T02:00:33.955Z,94654
2023-08-29T02:01:44.637Z,94657
2023-08-29T02:02:53.337Z,94657
2023-08-29T02:04:02.032Z,94654
2023-08-29T02:05:11.715Z,94654
2023-08-29T02:06:20.430Z,94651
2023-08-29T02:07:29.134Z,94652
2023-08-29T02:08:38.830Z,94649
2023-08-29T02:09:47.524Z,94650
2023-08-29T02:10:57.243Z,94651
2023-08-29T02:12:06.921Z,94657
2023-08-29T02:13:16.655Z,94652
2023-08-29T02:14:26.341Z,94651
2023-08-29T02:15:35.013Z,94647
2023-08-29T02:16:42.785Z,94652
2023-08-29T02:17:52.580Z,94646
2023-08-29T02:19:01.198Z,94645
2023-08-29T02:20:10.857Z,94655
2023-08-29T02:21:18.560Z,94648
2023-08-29T02:22:27.209Z,94650
2023-08-29T02:23:36.973Z,94652
2023-08-29T02:24:45.650Z,94652
2023-08-29T02:25:55.344Z,94652
2023-08-29T02:27:04.084Z,94653
2023-08-29T02:28:13.761Z,94654
2023-08-29T02:29:23.467Z,94657
2023-08-29T02:30:31.158Z,94652
2023-08-29T02:31:39.836Z,94662
2023-08-29T02:32:49.620Z,94666
2023-08-29T02:33:59.244Z,94659
2023-08-29T02:35:07.906Z,94662
2023-08-29T02:36:16.659Z,94665
2023-08-29T02:37:25.312Z,94667
2023-08-29T02:38:35.030Z,94659
2023-08-29T02:39:42.695Z,94666
2023-08-29T02:40:51.356Z,94665
2023-08-29T02:42:00.024Z,94660
2023-08-29T02:43:07.759Z,94658
2023-08-29T02:44:16.489Z,94661
2023-08-29T02:45:26.185Z,94660
2023-08-29T02:46:34.879Z,94662
2023-08-29T02:47:44.566Z,94656
2023-08-29T02:48:52.275Z,94661
2023-08-29T02:50:01.980Z,94655
2023-08-29T02:51:11.683Z,94658
2023-08-29T02:52:20.418Z,94655
2023-08-29T02:53:30.215Z,94654
2023-08-29T02:54:38.922Z,94651
2023-08-29T02:55:47.648Z,94658
2023-08-29T02:56:57.334Z,94655
2023-08-29T02:58:05.369Z,94658
2023-08-29T02:59:13.742Z,94659
2023-08-29T03:00:23.414Z,94660
2023-08-29T03:01:32.156Z,94657
2023-08-29T03:02:40.994Z,94654
2023-08-29T03:03:50.606Z,94661
2023-08-29T03:04:59.281Z,94656
2023-08-29T03:06:07.969Z,94656
2023-08-29T03:07:17.654Z,94660
2023-08-29T03:08:25.382Z,94661
2023-08-29T03:09:35.095Z,94658
2023-08-29T03:10:44.786Z,94654
2023-08-29T03:11:53.483Z,94658
2023-08-29T03:13:03.159Z,94658
2023-08-29T03:14:12.900Z,94659
2023-08-29T03:15:22.639Z,94653
2023-08-29T03:16:32.337Z,94652
2023-08-29T03:17:41.989Z,94653
2023-08-29T03:18:50.685Z,94656
2023-08-29T03:19:59.361Z,94647
2023-08-29T03:21:08.056Z,94649
2023-08-29T03:22:17.764Z,94652
2023-08-29T03:23:25.434Z,94655
2023-08-29T03:24:34.138Z,94654
2023-08-29T03:25:43.898Z,94654
2023-08-29T03:26:52.576Z,94648
2023-08-29T03:28:02.343Z,94648
2023-08-29T03:29:12.037Z,94649
2023-08-29T03:30:20.765Z,94651
2023-08-29T03:31:30.474Z,94646
2023-08-29T03:32:40.214Z,94650
2023-08-29T03:33:49.815Z,94645
2023-08-29T03:34:59.518Z,94645
2023-08-29T03:36:09.213Z,94648
2023-08-29T03:37:16.938Z,94647
2023-08-29T03:38:27.660Z,94646
2023-08-29T03:39:36.341Z,94647
2023-08-29T03:40:46.068Z,94649
2023-08-29T03:41:53.797Z,94648
2023-08-29T03:43:03.494Z,94650
2023-08-29T03:44:13.175Z,94652
2023-08-29T03:45:22.852Z,94647
2023-08-29T03:46:32.563Z,94648
2023-08-29T03:47:41.412Z,94643
2023-08-29T03:48:50.911Z,94651
2023-08-29T03:50:00.637Z,94649
2023-08-29T03:51:09.256Z,94655
2023-08-29T03:52:18.968Z,94653
2023-08-29T03:53:28.660Z,94659
2023-08-29T03:54:37.374Z,94656
2023-08-29T03:55:46.029Z,94656
2023-08-29T03:56:53.721Z,94659
2023-08-29T03:58:03.726Z,94664
2023-08-29T03:59:13.140Z,94659
2023-08-29T04:00:20.808Z,94657
2023-08-29T04:01:29.468Z,94652
2023-08-29T04:02:39.164Z,94654
2023-08-29T04:03:49.490Z,94655
2023-08-29T04:04:57.626Z,94654
2023-08-29T04:06:06.270Z,94650
2023-08-29T04:07:15.955Z,94655
2023-08-29T04:08:25.620Z,94653
2023-08-29T04:09:34.324Z,94659
2023-08-29T04:10:44.029Z,94655
2023-08-29T04:11:53.794Z,94661
2023-08-29T04:13:02.615Z,94663
2023-08-29T04:14:12.276Z,94660
2023-08-29T04:15:20.983Z,94657
2023-08-29T04:16:29.751Z,94654
2023-08-29T04:17:39.441Z,94656
2023-08-29T04:18:47.124Z,94651
2023-08-29T04:19:55.788Z,94653
2023-08-29T04:21:05.517Z,94645
2023-08-29T04:22:14.187Z,94648
2023-08-29T04:23:23.889Z,94648
2023-08-29T04:24:32.603Z,94651
2023-08-29T04:25:41.296Z,94650
2023-08-29T04:26:50.980Z,94647
2023-08-29T04:27:58.668Z,94647
2023-08-29T04:29:08.616Z,94649
2023-08-29T04:30:17.311Z,94654
2023-08-29T04:31:25.999Z,94655
2023-08-29T04:32:33.702Z,94658
2023-08-29T04:33:43.350Z,94662
2023-08-29T04:34:53.060Z,94657
2023-08-29T04:36:02.755Z,94662
2023-08-29T04:37:12.472Z,94662
2023-08-29T04:38:22.192Z,94667
2023-08-29T04:39:31.909Z,94659
2023-08-29T04:40:40.690Z,94656
2023-08-29T04:41:49.340Z,94653
2023-08-29T04:42:58.070Z,94644
2023-08-29T04:44:07.933Z,94643
2023-08-29T04:45:17.624Z,94646
2023-08-29T04:46:26.333Z,94646
2023-08-29T04:47:35.050Z,94641
2023-08-29T04:48:44.722Z,94640
2023-08-29T04:49:52.413Z,94643
2023-08-29T04:51:02.088Z,94642
2023-08-29T04:52:10.843Z,94644
2023-08-29T04:53:20.478Z,94646
2023-08-29T04:54:30.145Z,94647
2023-08-29T04:55:37.823Z,94645
2023-08-29T04:56:47.512Z,94647
2023-08-29T04:57:56.209Z,94645
2023-08-29T04:59:04.894Z,94646
2023-08-29T05:00:13.566Z,94649
2023-08-29T05:01:23.273Z,94648
2023-08-29T05:02:31.181Z,94647
2023-08-29T05:03:40.887Z,94648
2023-08-29T05:04:50.557Z,94644
2023-08-29T05:05:58.229Z,94649
2023-08-29T05:07:07.897Z,94645
2023-08-29T05:08:17.617Z,94645
2023-08-29T05:09:27.329Z,94648
2023-08-29T05:10:37.010Z,94645
2023-08-29T05:11:44.708Z,94649
2023-08-29T05:12:54.396Z,94647
2023-08-29T05:14:05.102Z,94648
2023-08-29T05:15:12.899Z,94643
2023-08-29T05:16:22.629Z,94645
2023-08-29T05:17:32.302Z,94648
2023-08-29T05:18:41.950Z,94649
2023-08-29T05:19:51.717Z,94648
2023-08-29T05:20:59.396Z,94655
2023-08-29T05:22:08.072Z,94655
2023-08-29T05:23:17.784Z,94649
2023-08-29T05:24:25.576Z,94652
2023-08-29T05:25:34.271Z,94656
2023-08-29T05:26:42.994Z,94656
2023-08-29T05:27:51.665Z,94656
2023-08-29T05:29:01.338Z,94661
2023-08-29T05:30:11.085Z,94659
2023-08-29T05:31:19.812Z,94657
2023-08-29T05:32:28.464Z,94657
2023-08-29T05:33:37.100Z,94659
2023-08-29T05:34:45.771Z,94654
2023-08-29T05:35:54.468Z,94660
2023-08-29T05:37:03.123Z,94661
2023-08-29T05:38:12.809Z,94661
2023-08-29T05:39:20.550Z,94659
2023-08-29T05:40:29.275Z,94661
2023-08-29T05:41:38.917Z,94663
2023-08-29T05:42:46.689Z,94665
2023-08-29T05:43:55.440Z,94664
2023-08-29T05:45:04.164Z,94662
2023-08-29T05:46:12.831Z,94667
2023-08-29T05:47:22.503Z,94663
2023-08-29T05:48:32.222Z,94664
2023-08-29T05:49:40.936Z,94665
2023-08-29T05:50:50.637Z,94661
2023-08-29T05:51:59.279Z,94664
2023-08-29T05:53:08.165Z,94663
2023-08-29T05:54:17.741Z,94667
2023-08-29T05:55:26.427Z,94660
2023-08-29T05:56:36.121Z,94661
2023-08-29T05:57:45.782Z,94663
2023-08-29T05:58:55.445Z,94669
2023-08-29T06:00:05.141Z,94667
2023-08-29T06:01:13.874Z,94667
2023-08-29T06:02:23.575Z,94673
2023-08-29T06:03:32.357Z,94674
2023-08-29T06:04:40.945Z,94676
2023-08-29T06:05:50.636Z,94679
2023-08-29T06:06:58.379Z,94678
2023-08-29T06:08:17.340Z,94678
2023-08-29T06:09:18.748Z,94685
2023-08-29T06:10:26.409Z,94684
2023-08-29T06:11:36.090Z,94687
2023-08-29T06:12:44.896Z,94684
2023-08-29T06:13:54.657Z,94692
2023-08-29T06:15:04.620Z,94687
2023-08-29T06:16:13.324Z,94689
2023-08-29T06:17:21.987Z,94688
2023-08-29T06:18:31.691Z,94690
2023-08-29T06:19:39.368Z,94683
2023-08-29T06:20:49.093Z,94686
2023-08-29T06:21:58.778Z,94684
2023-08-29T06:23:07.473Z,94689
2023-08-29T06:24:17.180Z,94689
2023-08-29T06:25:26.861Z,94692
2023-08-29T06:26:35.560Z,94692
2023-08-29T06:27:45.248Z,94691
2023-08-29T06:28:52.996Z,94697
2023-08-29T06:30:02.660Z,94695
2023-08-29T06:31:11.390Z,94698
2023-08-29T06:32:20.110Z,94697
2023-08-29T06:33:29.798Z,94704
2023-08-29T06:34:37.532Z,94707
2023-08-29T06:35:46.216Z,94715
2023-08-29T06:36:55.868Z,94710
2023-08-29T06:38:04.007Z,94718
2023-08-29T06:39:12.381Z,94718
2023-08-29T06:40:21.102Z,94718
2023-08-29T06:41:29.829Z,94723
2023-08-29T06:42:39.525Z,94723
2023-08-29T06:43:49.200Z,94722
2023-08-29T06:44:57.887Z,94719
2023-08-29T06:46:07.567Z,94720
2023-08-29T06:47:16.242Z,94725
2023-08-29T06:48:25.991Z,94720
2023-08-29T06:49:35.656Z,94718
2023-08-29T06:50:44.320Z,94719
2023-08-29T06:51:54.037Z,94720
2023-08-29T06:53:01.710Z,94717
2023-08-29T06:54:10.435Z,94714
2023-08-29T06:55:19.109Z,94720
2023-08-29T06:56:27.781Z,94717
2023-08-29T06:57:37.462Z,94712
2023-08-29T06:58:47.136Z,94712
2023-08-29T06:59:54.832Z,94709
2023-08-29T07:01:04.536Z,94714
2023-08-29T07:02:14.183Z,94716
2023-08-29T07:03:21.954Z,94717
2023-08-29T07:04:30.545Z,94720
2023-08-29T07:05:39.275Z,94716
2023-08-29T07:06:47.942Z,94716
2023-08-29T07:07:57.657Z,94717
2023-08-29T07:09:05.334Z,94722
2023-08-29T07:10:15.027Z,94725
2023-08-29T07:11:24.733Z,94724
2023-08-29T07:12:33.470Z,94720
2023-08-29T07:13:42.150Z,94720
2023-08-29T07:14:50.801Z,94723
2023-08-29T07:16:00.451Z,94734
2023-08-29T07:17:11.029Z,94726
2023-08-29T07:18:20.117Z,94734
2023-08-29T07:19:29.803Z,94737
2023-08-29T07:20:39.471Z,94733
2023-08-29T07:21:48.186Z,94735
2023-08-29T07:22:58.866Z,94740
2023-08-29T07:24:08.600Z,94740
2023-08-29T07:25:18.301Z,94735
2023-08-29T07:26:28.017Z,94735
2023-08-29T07:27:35.689Z,94740
2023-08-29T07:28:44.406Z,94736
2023-08-29T07:29:54.131Z,94738
2023-08-29T07:31:02.864Z,94739
2023-08-29T07:32:11.533Z,94744
2023-08-29T07:33:20.899Z,94743
2023-08-29T07:34:29.877Z,94741
2023-08-29T07:35:39.646Z,94743
2023-08-29T07:36:47.392Z,94742
2023-08-29T07:37:56.105Z,94741
2023-08-29T07:39:04.909Z,94740
2023-08-29T07:40:12.581Z,94735
2023-08-29T07:41:22.334Z,94740
2023-08-29T07:42:31.057Z,94739
2023-08-29T07:43:39.771Z,94737
2023-08-29T07:44:49.469Z,94736
2023-08-29T07:45:59.225Z,94738
2023-08-29T07:47:14.700Z,94733
2023-08-29T07:48:19.550Z,94738
2023-08-29T07:49:27.264Z,94732
2023-08-29T07:50:37.010Z,94734
2023-08-29T07:51:45.695Z,94737
2023-08-29T07:52:54.395Z,94738
2023-08-29T07:54:04.119Z,94740
2023-08-29T07:55:12.828Z,94743
2023-08-29T07:56:22.567Z,94743
2023-08-29T07:57:32.221Z,94745
2023-08-29T07:58:40.920Z,94738
2023-08-29T07:59:49.621Z,94740
2023-08-29T08:00:58.339Z,94738
2023-08-29T08:02:07.047Z,94741
2023-08-29T08:03:16.718Z,94741
2023-08-29T08:04:25.425Z,94747
2023-08-29T08:05:34.116Z,94745
2023-08-29T08:06:43.786Z,94743
2023-08-29T08:07:52.495Z,94745
2023-08-29T08:09:01.197Z,94748
2023-08-29T08:10:09.871Z,94751
2023-08-29T08:11:19.851Z,94755
2023-08-29T08:12:30.529Z,94760
2023-08-29T08:13:38.214Z,94755
2023-08-29T08:14:46.908Z,94761
2023-08-29T08:15:57.055Z,94755
2023-08-29T08:17:07.267Z,94763
2023-08-29T08:18:15.954Z,94759
2023-08-29T08:19:24.604Z,94764
2023-08-29T08:20:33.313Z,94756
2023-08-29T08:21:43.024Z,94757
2023-08-29T08:22:53.665Z,94754
2023-08-29T08:24:03.335Z,94758
2023-08-29T08:25:13.013Z,94762
2023-08-29T08:26:20.695Z,94759
2023-08-29T08:27:29.405Z,94763
2023-08-29T08:28:38.048Z,94766
2023-08-29T08:29:46.719Z,94763
2023-08-29T08:30:55.405Z,94764
2023-08-29T08:32:04.084Z,94764
2023-08-29T08:33:13.832Z,94769
2023-08-29T08:34:23.471Z,94771
2023-08-29T08:35:35.844Z,94767
2023-08-29T08:36:42.801Z,94772
2023-08-29T08:37:52.554Z,94766
2023-08-29T08:39:02.357Z,94772
2023-08-29T08:40:12.104Z,94772
2023-08-29T08:41:20.708Z,94775
2023-08-29T08:42:29.370Z,94782
2023-08-29T08:43:38.111Z,94778
2023-08-29T08:44:46.840Z,94780
2023-08-29T08:45:55.578Z,94782
2023-08-29T08:47:04.154Z,94784
2023-08-29T08:48:12.882Z,94792
2023-08-29T08:49:22.523Z,94787
2023-08-29T08:50:31.291Z,94790
2023-08-29T08:51:40.983Z,94790
2023-08-29T08:52:49.656Z,94793
2023-08-29T08:53:59.391Z,94788
2023-08-29T08:55:09.033Z,94797
2023-08-29T08:56:18.728Z,94794
2023-08-29T08:57:28.472Z,94803
2023-08-29T08:58:37.157Z,94804
2023-08-29T08:59:46.858Z,94797
2023-08-29T09:00:54.548Z,94800
2023-08-29T09:02:03.275Z,94805
2023-08-29T09:03:12.004Z,94804
2023-08-29T09:04:20.712Z,94804
2023-08-29T09:05:30.320Z,94808
2023-08-29T09:06:38.992Z,94807
2023-08-29T09:07:48.636Z,94802
2023-08-29T09:08:58.322Z,94804
2023-08-29T09:10:06.056Z,94806
2023-08-29T09:11:14.654Z,94808
2023-08-29T09:12:24.323Z,94804
2023-08-29T09:13:34.088Z,94800
2023-08-29T09:14:43.751Z,94797
2023-08-29T09:15:51.431Z,94799
2023-08-29T09:17:00.112Z,94797
2023-08-29T09:18:10.066Z,94797
2023-08-29T09:19:19.528Z,94797
2023-08-29T09:20:28.153Z,94795
2023-08-29T09:21:36.912Z,94801
2023-08-29T09:22:45.485Z,94793
2023-08-29T09:23:55.176Z,94797
2023-08-29T09:25:03.919Z,94796
2023-08-29T09:26:13.606Z,94802
2023-08-29T09:27:23.254Z,94796
2023-08-29T09:28:30.909Z,94804
2023-08-29T09:29:39.575Z,94803
2023-08-29T09:30:48.257Z,94801
2023-08-29T09:31:56.914Z,94805
2023-08-29T09:33:06.685Z,94805
2023-08-29T09:34:16.296Z,94806
2023-08-29T09:35:24.983Z,94812
2023-08-29T09:36:34.620Z,94809
2023-08-29T09:37:43.285Z,94812
2023-08-29T09:38:52.017Z,94812
2023-08-29T09:40:00.723Z,94809
2023-08-29T09:41:10.398Z,94808
2023-08-29T09:42:20.133Z,94807
2023-08-29T09:43:29.762Z,94809
2023-08-29T09:44:37.423Z,94809
2023-08-29T09:45:47.189Z,94808
2023-08-29T09:46:54.856Z,94812
2023-08-29T09:48:03.764Z,94810
2023-08-29T09:49:13.227Z,94812
2023-08-29T09:50:22.894Z,94814
2023-08-29T09:51:32.576Z,94812
2023-08-29T09:52:40.274Z,94812
2023-08-29T09:53:49.121Z,94813
2023-08-29T09:54:58.780Z,94812
2023-08-29T09:56:06.457Z,94811
2023-08-29T09:57:14.119Z,94806
2023-08-29T09:58:24.903Z,94803
2023-08-29T09:59:32.520Z,94803
2023-08-29T10:00:42.494Z,94803
2023-08-29T10:01:50.911Z,94802
2023-08-29T10:03:00.699Z,94806
2023-08-29T10:04:10.391Z,94805
2023-08-29T10:05:18.060Z,94807
2023-08-29T10:06:26.728Z,94806
2023-08-29T10:07:35.487Z,94803
2023-08-29T10:08:44.156Z,94801
2023-08-29T10:09:54.840Z,94807
2023-08-29T10:11:03.517Z,94806
2023-08-29T10:12:13.210Z,94807
2023-08-29T10:13:22.924Z,94806
2023-08-29T10:14:30.654Z,94808
2023-08-29T10:15:40.284Z,94814
2023-08-29T10:16:49.099Z,94806
2023-08-29T10:17:57.744Z,94809
2023-08-29T10:19:07.381Z,94813
2023-08-29T10:20:15.419Z,94810
2023-08-29T10:21:24.080Z,94807
2023-08-29T10:22:33.831Z,94810
2023-08-29T10:23:42.527Z,94804
2023-08-29T10:24:51.215Z,94802
2023-08-29T10:25:59.862Z,94805
2023-08-29T10:27:08.554Z,94799
2023-08-29T10:28:18.316Z,94799
2023-08-29T10:29:26.990Z,94800
2023-08-29T10:30:36.806Z,94803
2023-08-29T10:31:46.391Z,94809
2023-08-29T10:32:56.088Z,94811
2023-08-29T10:34:04.808Z,94814
2023-08-29T10:35:13.475Z,94820
2023-08-29T10:36:23.129Z,94822
2023-08-29T10:37:32.862Z,94821
2023-08-29T10:38:41.583Z,94820
2023-08-29T10:39:50.268Z,94823
2023-08-29T10:40:59.971Z,94821
2023-08-29T10:42:09.717Z,94820
2023-08-29T10:43:19.700Z,94819
2023-08-29T10:44:29.321Z,94819
2023-08-29T10:45:38.038Z,94819
2023-08-29T10:46:47.749Z,94819
2023-08-29T10:47:57.407Z,94818
2023-08-29T10:49:06.158Z,94814
2023-08-29T10:50:15.833Z,94817
2023-08-29T10:51:24.529Z,94814
2023-08-29T10:52:33.198Z,94816
2023-08-29T10:53:42.880Z,94818
2023-08-29T10:54:52.044Z,94813
2023-08-29T10:56:00.721Z,94814
2023-08-29T10:57:10.363Z,94812
2023-08-29T10:58:18.013Z,94812
2023-08-29T10:59:27.711Z,94809
2023-08-29T11:00:37.398Z,94807
2023-08-29T11:01:46.081Z,94806
2023-08-29T11:02:57.997Z,94801
2023-08-29T11:04:05.460Z,94800
2023-08-29T11:05:15.167Z,94801
2023-08-29T11:06:24.853Z,94802
2023-08-29T11:07:33.524Z,94796
2023-08-29T11:08:42.166Z,94798
2023-08-29T11:09:51.853Z,94799
2023-08-29T11:11:00.677Z,94802
2023-08-29T11:12:10.412Z,94807
2023-08-29T11:13:19.080Z,94800
2023-08-29T11:14:27.745Z,94793
2023-08-29T11:15:37.448Z,94790
2023-08-29T11:16:46.138Z,94794
2023-08-29T11:17:54.879Z,94791
2023-08-29T11:19:04.566Z,94794
2023-08-29T11:20:14.216Z,94791
2023-08-29T11:21:23.941Z,94789
2023-08-29T11:22:32.727Z,94791
2023-08-29T11:23:41.294Z,94787
2023-08-29T11:24:50.994Z,94786
2023-08-29T11:25:59.668Z,94787
2023-08-29T11:27:09.332Z,94785
2023-08-29T11:28:18.038Z,94788
2023-08-29T11:29:27.708Z,94787
2023-08-29T11:30:43.674Z,94783
2023-08-29T11:31:48.049Z,94783
2023-08-29T11:32:57.719Z,94788
2023-08-29T11:34:08.701Z,94788
2023-08-29T11:35:17.204Z,94789
2023-08-29T11:36:25.904Z,94784
2023-08-29T11:37:34.631Z,94794
2023-08-29T11:38:44.315Z,94786
2023-08-29T11:39:55.032Z,94786
2023-08-29T11:41:04.186Z,94789
2023-08-29T11:42:32.651Z,94786
2023-08-29T11:43:51.234Z,94791
2023-08-29T11:45:13.110Z,94788
2023-08-29T11:45:49.741Z,94788
2023-08-29T11:46:57.112Z,94795
2023-08-29T11:48:06.051Z,94797
2023-08-29T11:49:15.576Z,94796
2023-08-29T11:50:25.223Z,94799
2023-08-29T11:51:33.860Z,94796
2023-08-29T11:52:43.603Z,94796
2023-08-29T11:53:53.359Z,94794
2023-08-29T11:55:03.016Z,94795
2023-08-29T11:56:11.689Z,94795
2023-08-29T11:57:20.412Z,94797
2023-08-29T11:58:30.133Z,94800
2023-08-29T11:59:37.816Z,94800
2023-08-29T12:00:47.454Z,94806
2023-08-29T12:01:57.215Z,94804
2023-08-29T12:03:05.894Z,94806
2023-08-29T12:04:15.620Z,94806
2023-08-29T12:05:25.334Z,94802
2023-08-29T12:06:34.990Z,94807
2023-08-29T12:07:44.711Z,94813
2023-08-29T12:08:51.395Z,94814
2023-08-29T12:10:01.060Z,94819
2023-08-29T12:11:10.796Z,94819
2023-08-29T12:12:19.434Z,94822
2023-08-29T12:13:30.222Z,94824
2023-08-29T12:14:39.879Z,94829
2023-08-29T12:15:48.535Z,94827
2023-08-29T12:16:58.221Z,94827
2023-08-29T12:18:06.167Z,94829
2023-08-29T12:19:14.574Z,94825
2023-08-29T12:20:24.254Z,94829
2023-08-29T12:21:31.964Z,94825
2023-08-29T12:22:41.612Z,94823
2023-08-29T12:23:51.309Z,94835
2023-08-29T12:24:59.968Z,94827
2023-08-29T12:26:09.608Z,94835
2023-08-29T12:27:17.308Z,94836
2023-08-29T12:28:25.956Z,94831
2023-08-29T12:29:35.700Z,94839
2023-08-29T12:30:43.394Z,94835
2023-08-29T12:31:53.056Z,94833
2023-08-29T12:33:01.773Z,94834
2023-08-29T12:34:11.509Z,94833
2023-08-29T12:35:20.219Z,94833
2023-08-29T12:36:27.850Z,94831
2023-08-29T12:37:37.646Z,94832
2023-08-29T12:38:47.201Z,94834
2023-08-29T12:39:54.914Z,94834
2023-08-29T12:41:04.574Z,94832
2023-08-29T12:42:14.207Z,94828
2023-08-29T12:43:22.881Z,94831
2023-08-29T12:44:32.595Z,94822
2023-08-29T12:45:53.206Z,94826
2023-08-29T12:46:50.931Z,94832
2023-08-29T12:48:00.651Z,94826
2023-08-29T12:49:10.275Z,94829
2023-08-29T12:50:19.962Z,94827
2023-08-29T12:51:29.753Z,94826
2023-08-29T12:52:38.423Z,94835
2023-08-29T12:53:46.107Z,94833
2023-08-29T12:54:55.817Z,94829
2023-08-29T12:56:03.562Z,94833
2023-08-29T12:57:13.247Z,94828
2023-08-29T12:58:21.970Z,94830
2023-08-29T12:59:31.656Z,94824
2023-08-29T13:00:40.367Z,94821
2023-08-29T13:01:48.041Z,94821
2023-08-29T13:02:56.795Z,94822
2023-08-29T13:04:06.401Z,94817
2023-08-29T13:05:15.091Z,94819
2023-08-29T13:06:26.407Z,94817
2023-08-29T13:07:34.389Z,94820
2023-08-29T13:08:43.055Z,94822
2023-08-29T13:09:52.748Z,94818
2023-08-29T13:11:02.412Z,94827
2023-08-29T13:12:11.069Z,94827
2023-08-29T13:13:20.722Z,94822
2023-08-29T13:14:30.461Z,94824
2023-08-29T13:15:50.264Z,94821
2023-08-29T13:16:49.796Z,94826
2023-08-29T13:17:58.463Z,94822
2023-08-29T13:19:07.122Z,94819
2023-08-29T13:20:15.817Z,94825
2023-08-29T13:21:25.464Z,94814
2023-08-29T13:22:35.126Z,94818
2023-08-29T13:23:42.788Z,94824
2023-08-29T13:24:51.575Z,94826
2023-08-29T13:26:00.286Z,94816
2023-08-29T13:27:09.920Z,94814
2023-08-29T13:28:19.593Z,94814
2023-08-29T13:29:27.308Z,94820
2023-08-29T13:30:35.951Z,94820
2023-08-29T13:31:45.761Z,94819
2023-08-29T13:32:53.433Z,94820
2023-08-29T13:34:02.079Z,94822
2023-08-29T13:35:11.628Z,94817
2023-08-29T13:36:20.449Z,94820
2023-08-29T13:37:30.204Z,94820
2023-08-29T13:38:38.863Z,94820
2023-08-29T13:39:48.544Z,94820
2023-08-29T13:40:58.247Z,94820
2023-08-29T13:42:05.926Z,94820
2023-08-29T13:43:14.558Z,94814
2023-08-29T13:44:24.302Z,94817
2023-08-29T13:45:32.985Z,94815
2023-08-29T13:46:45.214Z,94816
2023-08-29T13:47:52.401Z,94820
2023-08-29T13:49:00.998Z,94822
2023-08-29T13:50:10.692Z,94821
2023-08-29T13:51:20.415Z,94828
2023-08-29T13:52:29.084Z,94826
2023-08-29T13:53:37.787Z,94825
2023-08-29T13:54:45.496Z,94830
2023-08-29T13:55:55.149Z,94833
2023-08-29T13:57:02.831Z,94830
2023-08-29T13:58:11.505Z,94830
2023-08-29T13:59:22.176Z,94832
2023-08-29T14:00:29.894Z,94823
2023-08-29T14:01:38.629Z,94829
2023-08-29T14:02:47.461Z,94832
2023-08-29T14:03:57.170Z,94830
2023-08-29T14:05:06.911Z,94830
2023-08-29T14:06:15.574Z,94830
2023-08-29T14:07:24.248Z,94828
2023-08-29T14:08:33.932Z,94828
2023-08-29T14:09:41.625Z,94825
2023-08-29T14:10:50.273Z,94824
2023-08-29T14:11:58.930Z,94823
2023-08-29T14:13:07.607Z,94822
2023-08-29T14:14:17.321Z,94820
2023-08-29T14:15:27.009Z,94820
2023-08-29T14:16:35.686Z,94821
2023-08-29T14:17:46.464Z,94818
2023-08-29T14:18:55.023Z,94820
2023-08-29T14:20:03.681Z,94813
2023-08-29T14:21:13.381Z,94817
2023-08-29T14:22:26.007Z,94818
2023-08-29T14:23:35.684Z,94817
2023-08-29T14:24:43.328Z,94816
2023-08-29T14:25:51.975Z,94819
2023-08-29T14:27:01.681Z,94817
2023-08-29T14:28:10.373Z,94822
2023-08-29T14:29:19.106Z,94824
2023-08-29T14:30:28.762Z,94824
2023-08-29T14:31:37.472Z,94825
2023-08-29T14:32:47.150Z,94828
2023-08-29T14:33:54.796Z,94825
2023-08-29T14:35:04.431Z,94824
2023-08-29T14:36:14.128Z,94830
2023-08-29T14:37:21.794Z,94830
2023-08-29T14:38:31.467Z,94833
2023-08-29T14:39:41.127Z,94834
2023-08-29T14:40:49.778Z,94834
2023-08-29T14:41:59.473Z,94840
2023-08-29T14:43:08.123Z,94835
2023-08-29T14:44:17.769Z,94836
2023-08-29T14:45:27.525Z,94840
2023-08-29T14:46:37.189Z,94837
2023-08-29T14:47:46.979Z,94842
2023-08-29T14:48:56.642Z,94837
2023-08-29T14:50:04.337Z,94838